createdAt,value
2018-09-18T00:02:02.484Z,3.20
2018-09-18T00:04:30.747Z,3.20
2018-09-18T00:06:58.778Z,3.27
2018-09-18T00:09:26.821Z,3.23
2018-09-18T00:11:54.871Z,3.57
2018-09-18T00:14:22.918Z,3.30
2018-09-18T00:16:50.962Z,3.50
2018-09-18T00:19:19.006Z,3.00
2018-09-18T00:21:47.079Z,2.87
2018-09-18T00:24:15.151Z,3.80
2018-09-18T00:26:43.185Z,3.40
2018-09-18T00:29:11.366Z,3.17
2018-09-18T00:31:39.391Z,2.83
2018-09-18T00:34:07.457Z,3.30
2018-09-18T00:36:35.491Z,3.20
2018-09-18T00:39:04.131Z,3.30
2018-09-18T00:41:32.164Z,3.40
2018-09-18T00:44:00.492Z,3.30
2018-09-18T00:46:28.515Z,3.50
2018-09-18T00:48:56.569Z,3.13
2018-09-18T00:51:24.591Z,3.20
2018-09-18T00:53:52.623Z,3.20
2018-09-18T00:56:20.669Z,3.03
2018-09-18T00:58:48.708Z,3.30
2018-09-18T01:01:16.742Z,3.50
2018-09-18T01:03:44.789Z,3.30
2018-09-18T01:06:12.986Z,3.30
2018-09-18T01:08:41.204Z,3.03
2018-09-18T01:11:09.222Z,3.63
2018-09-18T01:13:37.259Z,3.33
2018-09-18T01:16:05.287Z,3.17
2018-09-18T01:18:40.529Z,3.60
2018-09-18T01:21:08.990Z,3.00
2018-09-18T01:23:37.167Z,3.30
2018-09-18T01:26:05.343Z,3.33
2018-09-18T01:28:33.666Z,3.77
2018-09-18T01:31:01.738Z,3.37
2018-09-18T01:33:30.209Z,3.63
2018-09-18T01:35:58.246Z,3.40
2018-09-18T01:38:26.301Z,3.47
2018-09-18T01:40:54.891Z,3.93
2018-09-18T01:43:22.934Z,3.60
2018-09-18T01:45:51.139Z,3.40
2018-09-18T01:48:19.528Z,3.50
2018-09-18T01:50:47.575Z,3.40
2018-09-18T01:53:15.620Z,4.03
2018-09-18T01:55:43.653Z,3.60
2018-09-18T01:58:11.708Z,3.80
2018-09-18T02:00:39.748Z,3.47
2018-09-18T02:03:07.838Z,3.40
2018-09-18T02:05:35.888Z,3.90
2018-09-18T02:08:03.947Z,3.80
2018-09-18T02:10:33.038Z,3.47
2018-09-18T02:13:01.079Z,3.63
2018-09-18T02:15:29.136Z,4.10
2018-09-18T02:17:57.189Z,4.10
2018-09-18T02:20:25.292Z,4.20
2018-09-18T02:22:53.336Z,4.17
2018-09-18T02:25:21.379Z,4.00
2018-09-18T02:27:49.418Z,4.23
2018-09-18T02:30:17.460Z,4.37
2018-09-18T02:32:45.511Z,4.20
2018-09-18T02:35:13.551Z,4.30
2018-09-18T02:37:41.631Z,4.33
2018-09-18T02:40:09.689Z,4.10
2018-09-18T02:42:37.751Z,4.43
2018-09-18T02:45:05.812Z,3.90
2018-09-18T02:47:33.900Z,4.33
2018-09-18T02:50:01.960Z,4.37
2018-09-18T02:52:30.005Z,3.87
2018-09-18T02:54:58.063Z,4.10
2018-09-18T02:57:26.724Z,3.90
2018-09-18T02:59:54.739Z,4.37
2018-09-18T03:02:22.863Z,4.63
2018-09-18T03:04:50.917Z,4.20
2018-09-18T03:07:18.972Z,4.00
2018-09-18T03:09:47.036Z,4.60
2018-09-18T03:12:15.080Z,4.40
2018-09-18T03:14:43.142Z,3.93
2018-09-18T03:17:11.195Z,4.10
2018-09-18T03:19:39.247Z,4.13
2018-09-18T03:22:07.296Z,3.87
2018-09-18T03:24:35.352Z,4.10
2018-09-18T03:27:03.493Z,4.43
2018-09-18T03:29:31.567Z,4.43
2018-09-18T03:31:59.611Z,3.87
2018-09-18T03:34:27.668Z,3.83
2018-09-18T03:36:56.056Z,4.30
2018-09-18T03:39:24.142Z,4.63
2018-09-18T03:41:52.177Z,4.10
2018-09-18T03:44:20.225Z,4.23
2018-09-18T03:46:48.258Z,3.90
2018-09-18T03:49:16.319Z,5.07
2018-09-18T03:51:44.400Z,4.47
2018-09-18T03:54:12.463Z,3.97
2018-09-18T03:56:40.529Z,4.20
2018-09-18T03:59:08.597Z,4.27
2018-09-18T04:01:36.642Z,4.30
2018-09-18T04:04:04.704Z,4.57
2018-09-18T04:06:32.744Z,4.47
2018-09-18T04:09:00.819Z,4.10
2018-09-18T04:11:28.971Z,4.60
2018-09-18T04:13:57.017Z,4.73
2018-09-18T04:16:25.064Z,4.23
2018-09-18T04:18:53.116Z,4.67
2018-09-18T04:21:25.422Z,4.60
2018-09-18T04:23:53.482Z,4.20
2018-09-18T04:26:21.531Z,4.40
2018-09-18T04:28:49.576Z,4.43
2018-09-18T04:31:17.630Z,4.80
2018-09-18T04:33:45.906Z,4.37
2018-09-18T04:36:13.965Z,4.13
2018-09-18T04:38:42.006Z,4.60
2018-09-18T04:41:10.133Z,4.10
2018-09-18T04:43:38.185Z,5.13
2018-09-18T04:46:06.396Z,4.07
2018-09-18T04:48:35.380Z,4.30
2018-09-18T04:51:03.432Z,4.10
2018-09-18T04:53:31.498Z,4.90
2018-09-18T04:55:59.552Z,5.50
2018-09-18T04:58:28.640Z,5.60
2018-09-18T05:00:56.700Z,4.80
2018-09-18T05:03:24.773Z,4.30
2018-09-18T05:05:52.848Z,5.30
2018-09-18T05:08:20.882Z,4.63
2018-09-18T05:10:48.924Z,4.80
2018-09-18T05:13:17.076Z,4.77
2018-09-18T05:15:45.158Z,4.60
2018-09-18T05:18:14.014Z,4.57
2018-09-18T05:20:42.132Z,4.50
2018-09-18T05:23:10.161Z,4.57
2018-09-18T05:25:38.353Z,4.90
2018-09-18T05:28:06.420Z,4.40
2018-09-18T05:30:34.487Z,4.37
2018-09-18T05:33:02.559Z,4.63
2018-09-18T05:35:30.614Z,4.83
2018-09-18T05:37:58.663Z,5.03
2018-09-18T05:40:26.728Z,4.37
2018-09-18T05:42:54.767Z,4.10
2018-09-18T05:45:23.042Z,4.10
2018-09-18T05:47:51.099Z,3.97
2018-09-18T05:50:19.208Z,4.70
2018-09-18T05:52:47.251Z,3.70
2018-09-18T05:55:15.296Z,3.97
2018-09-18T05:57:43.392Z,4.10
2018-09-18T06:00:11.452Z,3.43
2018-09-18T06:02:39.593Z,3.57
2018-09-18T06:05:07.670Z,4.40
2018-09-18T06:07:35.707Z,4.07
2018-09-18T06:10:03.747Z,3.83
2018-09-18T06:12:31.913Z,3.80
2018-09-18T06:15:00.184Z,3.80
2018-09-18T06:17:28.676Z,3.97
2018-09-18T06:19:57.019Z,3.20
2018-09-18T06:22:25.063Z,3.90
2018-09-18T06:24:53.099Z,3.90
2018-09-18T06:27:21.247Z,3.73
2018-09-18T06:29:49.279Z,3.50
2018-09-18T06:32:17.344Z,3.27
2018-09-18T06:34:45.383Z,3.50
2018-09-18T06:37:13.423Z,3.20
2018-09-18T06:39:41.451Z,3.30
2018-09-18T06:42:09.501Z,3.70
2018-09-18T06:44:37.537Z,3.50
2018-09-18T06:47:05.899Z,3.00
2018-09-18T06:49:33.919Z,3.20
2018-09-18T06:52:01.969Z,2.97
2018-09-18T06:54:30.044Z,3.27
2018-09-18T06:56:58.060Z,3.03
2018-09-18T06:59:26.083Z,3.13
2018-09-18T07:01:54.220Z,2.80
2018-09-18T07:04:22.258Z,3.10
2018-09-18T07:06:50.306Z,3.03
2018-09-18T07:09:18.354Z,3.17
2018-09-18T07:11:46.396Z,3.07
2018-09-18T07:14:14.439Z,3.17
2018-09-18T07:16:42.483Z,3.17
2018-09-18T07:19:10.527Z,3.20
2018-09-18T07:21:38.586Z,3.40
2018-09-18T07:24:06.716Z,3.27
2018-09-18T07:26:34.788Z,3.00
2018-09-18T07:29:02.835Z,3.27
2018-09-18T07:31:30.983Z,3.03
2018-09-18T07:33:59.039Z,3.23
2018-09-18T07:36:27.176Z,3.20
2018-09-18T07:38:55.231Z,2.90
2018-09-18T07:41:23.404Z,3.37
2018-09-18T07:43:51.429Z,2.93
2018-09-18T07:46:19.495Z,3.10
2018-09-18T07:48:47.535Z,3.27
2018-09-18T07:51:15.583Z,3.30
2018-09-18T07:53:43.607Z,3.50
2018-09-18T07:56:11.652Z,3.40
2018-09-18T07:58:39.688Z,3.23
2018-09-18T08:01:07.756Z,3.60
2018-09-18T08:03:35.892Z,2.97
2018-09-18T08:06:04.004Z,3.23
2018-09-18T08:08:32.034Z,3.40
2018-09-18T08:11:00.180Z,3.13
2018-09-18T08:13:28.112Z,3.03
2018-09-18T08:15:56.139Z,3.17
2018-09-18T08:18:24.198Z,3.10
2018-09-18T08:20:52.877Z,3.30
2018-09-18T08:23:20.922Z,3.53
2018-09-18T08:25:49.089Z,3.53
2018-09-18T08:28:17.136Z,2.90
2018-09-18T08:30:45.176Z,3.20
2018-09-18T08:33:13.224Z,2.80
2018-09-18T08:35:41.267Z,3.57
2018-09-18T08:38:09.495Z,3.10
2018-09-18T08:40:38.174Z,3.30
2018-09-18T08:43:06.262Z,3.37
2018-09-18T08:45:34.308Z,3.37
2018-09-18T08:48:02.381Z,3.20
2018-09-18T08:50:30.416Z,3.10
2018-09-18T08:52:58.496Z,3.10
2018-09-18T08:55:26.519Z,3.27
2018-09-18T08:57:54.559Z,3.50
2018-09-18T09:00:22.600Z,2.93
2018-09-18T09:02:50.722Z,3.60
2018-09-18T09:05:18.764Z,3.20
2018-09-18T09:07:47.037Z,3.20
2018-09-18T09:10:15.089Z,3.30
2018-09-18T09:12:43.332Z,3.27
2018-09-18T09:15:11.417Z,3.60
2018-09-18T09:17:39.403Z,3.57
2018-09-18T09:20:07.615Z,3.20
2018-09-18T09:22:35.688Z,3.20
2018-09-18T09:25:03.797Z,2.90
2018-09-18T09:27:31.876Z,3.20
2018-09-18T09:29:59.930Z,3.10
2018-09-18T09:32:28.023Z,3.40
2018-09-18T09:34:56.087Z,3.20
2018-09-18T09:37:24.149Z,3.13
2018-09-18T09:39:52.207Z,3.20
2018-09-18T09:42:20.255Z,3.30
2018-09-18T09:44:48.292Z,3.60
2018-09-18T09:47:16.341Z,3.33
2018-09-18T09:49:44.379Z,3.33
2018-09-18T09:52:12.451Z,3.40
2018-09-18T09:54:40.484Z,3.20
2018-09-18T09:57:08.531Z,3.70
2018-09-18T09:59:36.754Z,3.70
2018-09-18T10:02:10.307Z,3.10
2018-09-18T10:04:38.344Z,2.93
2018-09-18T10:07:06.392Z,3.37
2018-09-18T10:09:34.440Z,3.00
2018-09-18T10:12:02.492Z,3.37
2018-09-18T10:14:30.789Z,3.93
2018-09-18T10:16:58.848Z,3.40
2018-09-18T10:19:26.895Z,3.27
2018-09-18T10:21:55.032Z,3.63
2018-09-18T10:24:23.115Z,3.70
2018-09-18T10:26:51.227Z,4.33
2018-09-18T10:29:19.227Z,4.20
2018-09-18T10:31:47.272Z,4.17
2018-09-18T10:34:15.318Z,3.90
2018-09-18T10:36:43.479Z,3.77
2018-09-18T10:39:12.031Z,3.63
2018-09-18T10:41:40.418Z,3.80
2018-09-18T10:44:08.408Z,4.03
2018-09-18T10:46:36.885Z,3.60
2018-09-18T10:49:05.049Z,4.07
2018-09-18T10:51:33.092Z,3.93
2018-09-18T10:54:01.136Z,3.93
2018-09-18T10:56:29.231Z,3.60
2018-09-18T10:58:58.307Z,3.87
2018-09-18T11:01:26.377Z,3.77
2018-09-18T11:03:54.428Z,3.77
2018-09-18T11:06:22.559Z,4.07
2018-09-18T11:08:50.629Z,4.17
2018-09-18T11:11:18.680Z,4.20
2018-09-18T11:13:46.752Z,4.10
2018-09-18T11:16:15.300Z,4.13
2018-09-18T11:18:43.268Z,4.00
2018-09-18T11:21:11.381Z,3.77
2018-09-18T11:23:39.369Z,4.00
2018-09-18T11:26:07.459Z,4.13
2018-09-18T11:28:35.499Z,3.77
2018-09-18T11:31:03.574Z,3.70
2018-09-18T11:33:31.647Z,4.13
2018-09-18T11:35:59.682Z,3.80
2018-09-18T11:38:27.743Z,4.10
2018-09-18T11:40:56.392Z,3.80
2018-09-18T11:43:24.903Z,3.73
2018-09-18T11:45:53.052Z,3.73
2018-09-18T11:48:21.003Z,3.50
2018-09-18T11:50:49.088Z,3.60
2018-09-18T11:53:17.161Z,4.00
2018-09-18T11:55:45.213Z,3.67
2018-09-18T11:58:13.293Z,3.63
2018-09-18T12:00:41.359Z,4.23
2018-09-18T12:03:09.653Z,4.10
2018-09-18T12:05:37.933Z,3.53
2018-09-18T12:08:06.077Z,3.40
2018-09-18T12:10:34.205Z,3.60
2018-09-18T12:13:03.067Z,3.60
2018-09-18T12:15:31.236Z,3.53
2018-09-18T12:17:59.386Z,3.83
2018-09-18T12:20:27.651Z,4.17
2018-09-18T12:22:55.717Z,3.80
2018-09-18T12:25:24.643Z,3.73
2018-09-18T12:27:52.795Z,4.40
2018-09-18T12:30:20.872Z,3.97
2018-09-18T12:32:48.918Z,4.00
2018-09-18T12:35:16.995Z,4.13
2018-09-18T12:37:45.027Z,3.73
2018-09-18T12:40:14.809Z,3.73
2018-09-18T12:42:42.976Z,3.60
2018-09-18T12:45:11.024Z,3.50
2018-09-18T12:47:39.068Z,3.67
2018-09-18T12:50:07.471Z,3.53
2018-09-18T12:52:35.899Z,3.60
2018-09-18T12:55:03.980Z,3.23
2018-09-18T12:57:32.481Z,3.77
2018-09-18T13:00:00.451Z,3.13
2018-09-18T13:02:28.598Z,3.50
2018-09-18T13:04:56.612Z,3.33
2018-09-18T13:07:24.732Z,3.70
2018-09-18T13:09:52.759Z,3.03
2018-09-18T13:12:20.934Z,3.10
2018-09-18T13:14:49.122Z,3.43
2018-09-18T13:17:17.240Z,2.90
2018-09-18T13:19:45.436Z,3.37
2018-09-18T13:22:13.488Z,2.90
2018-09-18T13:24:41.596Z,3.10
2018-09-18T13:27:09.640Z,3.00
2018-09-18T13:29:37.976Z,2.90
2018-09-18T13:32:06.232Z,3.10
2018-09-18T13:34:34.380Z,2.60
2018-09-18T13:37:02.445Z,2.43
2018-09-18T13:39:30.531Z,2.13
2018-09-18T13:41:58.571Z,2.60
2018-09-18T13:44:26.687Z,2.30
2018-09-18T13:46:54.736Z,2.60
2018-09-18T13:49:22.783Z,2.57
2018-09-18T13:51:50.909Z,3.13
2018-09-18T13:54:18.922Z,2.30
2018-09-18T13:56:47.039Z,2.40
2018-09-18T13:59:15.090Z,2.50
2018-09-18T14:01:43.519Z,2.37
2018-09-18T14:04:11.434Z,2.80
2018-09-18T14:06:39.510Z,2.57
2018-09-18T14:09:08.444Z,2.53
2018-09-18T14:11:36.612Z,2.50
2018-09-18T14:14:04.674Z,2.50
2018-09-18T14:16:32.737Z,2.67
2018-09-18T14:19:00.821Z,2.73
2018-09-18T14:21:28.879Z,2.27
2018-09-18T14:23:57.021Z,2.47
2018-09-18T14:26:25.449Z,2.50
2018-09-18T14:28:53.555Z,2.40
2018-09-18T14:31:21.640Z,2.60
2018-09-18T14:33:49.676Z,2.90
2018-09-18T14:36:17.747Z,2.90
2018-09-18T14:38:45.791Z,2.57
2018-09-18T14:41:13.832Z,2.50
2018-09-18T14:43:41.855Z,2.73
2018-09-18T14:46:09.908Z,3.00
2018-09-18T14:48:37.945Z,2.70
2018-09-18T14:51:06.148Z,2.90
2018-09-18T14:53:34.183Z,2.53
2018-09-18T14:56:02.233Z,2.63
2018-09-18T14:58:30.402Z,2.73
2018-09-18T15:00:58.492Z,2.70
2018-09-18T15:03:26.548Z,3.00
2018-09-18T15:05:54.583Z,2.93
2018-09-18T15:08:22.834Z,2.77
2018-09-18T15:10:50.914Z,2.70
2018-09-18T15:13:18.955Z,2.73
2018-09-18T15:15:47.020Z,3.20
2018-09-18T15:18:15.066Z,2.90
2018-09-18T15:20:43.104Z,3.00
2018-09-18T15:23:11.295Z,2.97
2018-09-18T15:25:39.441Z,3.20
2018-09-18T15:28:07.491Z,2.97
2018-09-18T15:30:35.632Z,3.10
2018-09-18T15:33:03.716Z,2.63
2018-09-18T15:35:32.427Z,2.83
2018-09-18T15:38:00.563Z,2.83
2018-09-18T15:40:28.641Z,3.27
2018-09-18T15:42:56.744Z,3.10
2018-09-18T15:45:24.990Z,3.13
2018-09-18T15:47:53.040Z,3.20
2018-09-18T15:50:21.095Z,3.60
2018-09-18T15:52:49.129Z,3.30
2018-09-18T15:55:17.302Z,3.27
2018-09-18T15:57:45.491Z,3.60
2018-09-18T16:00:13.517Z,4.03
2018-09-18T16:02:41.574Z,3.53
2018-09-18T16:05:09.647Z,3.70
2018-09-18T16:07:37.679Z,3.40
2018-09-18T16:10:05.740Z,3.40
2018-09-18T16:12:33.948Z,4.00
2018-09-18T16:15:02.028Z,3.40
2018-09-18T16:17:30.179Z,3.67
2018-09-18T16:19:58.203Z,3.77
2018-09-18T16:22:26.339Z,3.80
2018-09-18T16:24:54.482Z,3.80
2018-09-18T16:27:22.613Z,3.87
2018-09-18T16:29:50.667Z,3.90
2018-09-18T16:32:18.741Z,3.70
2018-09-18T16:34:46.783Z,3.57
2018-09-18T16:37:14.847Z,3.70
2018-09-18T16:39:42.976Z,3.67
2018-09-18T16:42:11.143Z,4.40
2018-09-18T16:44:39.196Z,4.03
2018-09-18T16:47:07.295Z,3.80
2018-09-18T16:49:35.456Z,3.60
2018-09-18T16:52:03.515Z,3.70
2018-09-18T16:54:31.638Z,4.33
2018-09-18T16:56:59.654Z,3.83
2018-09-18T16:59:27.703Z,4.23
2018-09-18T17:01:55.771Z,3.83
2018-09-18T17:04:23.848Z,4.40
2018-09-18T17:06:51.940Z,4.30
2018-09-18T17:09:20.016Z,3.73
2018-09-18T17:11:48.089Z,4.20
2018-09-18T17:14:16.149Z,4.10
2018-09-18T17:16:44.194Z,4.40
2018-09-18T17:19:12.298Z,3.80
2018-09-18T17:21:40.363Z,3.70
2018-09-18T17:24:08.467Z,3.70
2018-09-18T17:26:36.517Z,4.23
2018-09-18T17:29:04.591Z,4.37
2018-09-18T17:31:32.624Z,4.10
2018-09-18T17:34:00.742Z,5.13
2018-09-18T17:36:28.818Z,5.53
2018-09-18T17:38:56.948Z,5.03
2018-09-18T17:41:25.957Z,6.63
2018-09-18T17:43:54.109Z,4.80
2018-09-18T17:46:22.289Z,4.90
2018-09-18T17:48:50.655Z,5.50
2018-09-18T17:51:18.720Z,5.07
2018-09-18T17:53:47.374Z,5.57
2018-09-18T17:56:15.490Z,5.17
2018-09-18T17:58:43.778Z,5.37
2018-09-18T18:01:11.819Z,4.70
2018-09-18T18:03:39.868Z,6.73
2018-09-18T18:06:07.913Z,5.67
2018-09-18T18:08:36.866Z,6.40
2018-09-18T18:11:05.165Z,7.23
2018-09-18T18:13:34.352Z,7.10
2018-09-18T18:16:02.389Z,5.97
2018-09-18T18:18:30.429Z,4.30
2018-09-18T18:20:58.579Z,4.53
2018-09-18T18:23:26.601Z,4.33
2018-09-18T18:25:54.685Z,4.00
2018-09-18T18:28:23.148Z,4.60
2018-09-18T18:30:51.191Z,3.73
2018-09-18T18:33:19.319Z,3.90
2018-09-18T18:35:47.287Z,3.77
2018-09-18T18:38:15.343Z,3.53
2018-09-18T18:40:43.429Z,3.50
2018-09-18T18:43:11.464Z,4.63
2018-09-18T18:45:39.519Z,3.57
2018-09-18T18:48:07.690Z,3.83
2018-09-18T18:50:35.617Z,3.97
2018-09-18T18:53:03.663Z,3.33
2018-09-18T18:55:31.792Z,3.77
2018-09-18T18:57:59.830Z,4.10
2018-09-18T19:00:27.888Z,3.80
2018-09-18T19:02:55.936Z,3.50
2018-09-18T19:05:23.971Z,3.80
2018-09-18T19:07:52.827Z,3.77
2018-09-18T19:10:20.883Z,3.40
2018-09-18T19:12:48.945Z,3.70
2018-09-18T19:15:17.053Z,4.07
2018-09-18T19:17:45.129Z,3.87
2018-09-18T19:20:13.181Z,3.90
2018-09-18T19:22:41.238Z,3.90
2018-09-18T19:25:09.275Z,3.93
2018-09-18T19:27:37.412Z,3.83
2018-09-18T19:30:05.623Z,4.30
2018-09-18T19:32:33.804Z,3.60
2018-09-18T19:35:01.868Z,4.07
2018-09-18T19:37:29.991Z,4.00
2018-09-18T19:39:58.045Z,3.60
2018-09-18T19:42:26.147Z,4.20
2018-09-18T19:44:54.195Z,3.90
2018-09-18T19:47:22.576Z,4.10
2018-09-18T19:49:50.654Z,4.17
2018-09-18T19:52:18.834Z,3.80
2018-09-18T19:54:46.787Z,4.60
2018-09-18T19:57:14.884Z,3.53
2018-09-18T19:59:43.031Z,4.20
2018-09-18T20:02:11.136Z,4.17
2018-09-18T20:04:39.200Z,4.00
2018-09-18T20:07:07.257Z,3.87
2018-09-18T20:09:35.354Z,4.30
2018-09-18T20:12:03.361Z,3.80
2018-09-18T20:14:31.403Z,4.07
2018-09-18T20:16:59.522Z,3.93
2018-09-18T20:19:27.572Z,4.20
2018-09-18T20:21:55.614Z,4.17
2018-09-18T20:24:23.659Z,4.40
2018-09-18T20:26:51.711Z,3.97
2018-09-18T20:29:19.759Z,4.37
2018-09-18T20:31:47.799Z,4.13
2018-09-18T20:34:15.851Z,3.90
2018-09-18T20:36:43.883Z,4.20
2018-09-18T20:39:12.369Z,4.20
2018-09-18T20:41:40.458Z,4.50
2018-09-18T20:44:08.452Z,4.30
2018-09-18T20:46:36.480Z,3.90
2018-09-18T20:51:33.091Z,4.23
2018-09-18T20:54:01.145Z,4.10
2018-09-18T20:56:29.178Z,4.17
2018-09-18T20:58:57.222Z,4.07
2018-09-18T21:01:25.251Z,4.43
2018-09-18T21:03:53.297Z,4.47
2018-09-18T21:06:21.343Z,4.63
2018-09-18T21:08:49.386Z,4.30
2018-09-18T21:11:17.419Z,4.67
2018-09-18T21:13:45.551Z,4.70
2018-09-18T21:16:13.580Z,4.73
2018-09-18T21:18:41.620Z,5.43
2018-09-18T21:21:09.661Z,4.80
2018-09-18T21:23:37.699Z,4.90
2018-09-18T21:26:08.786Z,4.60
2018-09-18T21:28:36.824Z,4.80
2018-09-18T21:31:04.951Z,4.80
2018-09-18T21:33:33.012Z,5.00
2018-09-18T21:36:01.259Z,4.83
2018-09-18T21:38:29.758Z,5.40
2018-09-18T21:40:57.797Z,5.10
2018-09-18T21:43:26.402Z,5.30
2018-09-18T21:45:54.427Z,4.40
2018-09-18T21:48:22.893Z,4.80
2018-09-18T21:50:50.939Z,4.90
2018-09-18T21:53:18.982Z,5.00
2018-09-18T21:55:47.160Z,5.00
2018-09-18T21:58:15.207Z,5.03
2018-09-18T22:00:43.503Z,5.13
2018-09-18T22:03:11.683Z,5.17
2018-09-18T22:05:39.708Z,5.13
2018-09-18T22:08:07.784Z,4.93
2018-09-18T22:10:35.819Z,4.90
2018-09-18T22:13:03.880Z,5.07
2018-09-18T22:15:32.541Z,5.67
2018-09-18T22:18:00.581Z,5.27
2018-09-18T22:20:28.625Z,5.07
2018-09-18T22:22:56.671Z,5.43
2018-09-18T22:25:25.134Z,4.80
2018-09-18T22:27:53.722Z,5.30
2018-09-18T22:30:22.655Z,5.20
2018-09-18T22:32:50.707Z,4.67
2018-09-18T22:35:18.745Z,4.17
2018-09-18T22:37:46.807Z,5.10
2018-09-18T22:40:14.861Z,5.60
2018-09-18T22:42:42.895Z,4.70
2018-09-18T22:45:10.947Z,4.57
2018-09-18T22:47:38.980Z,4.37
2018-09-18T22:50:07.375Z,4.90
2018-09-18T22:52:35.404Z,3.97
2018-09-18T22:55:03.456Z,4.17
2018-09-18T22:57:31.614Z,3.90
2018-09-18T22:59:59.580Z,3.83
2018-09-18T23:02:27.853Z,3.90
2018-09-18T23:04:55.920Z,3.80
2018-09-18T23:07:23.964Z,4.00
2018-09-18T23:09:52.017Z,4.20
2018-09-18T23:12:20.067Z,4.20
2018-09-18T23:14:48.119Z,4.40
2018-09-18T23:17:16.309Z,4.20
2018-09-18T23:19:44.339Z,4.50
2018-09-18T23:22:12.436Z,4.13
2018-09-18T23:24:40.460Z,3.97
2018-09-18T23:27:08.499Z,3.90
2018-09-18T23:29:36.555Z,4.00
2018-09-18T23:32:04.591Z,3.77
2018-09-18T23:34:32.637Z,4.03
2018-09-18T23:37:00.682Z,3.60
2018-09-18T23:39:28.736Z,3.47
2018-09-18T23:41:56.773Z,3.60
2018-09-18T23:44:24.825Z,3.67
2018-09-18T23:46:52.883Z,3.33
2018-09-18T23:49:20.939Z,3.60
2018-09-18T23:51:48.975Z,4.03
2018-09-18T23:54:17.022Z,3.90
2018-09-18T23:56:45.063Z,3.63
2018-09-18T23:59:13.128Z,3.37
